Time;durP1;ratioP1;P1;durP2;ratioP2;P2;SDS_P1;SDS_P2;PMS_P1;PMS_P2;Temp;Humidity;BMP_temperature;BMP_pressure;BME280_temperature;BME280_humidity;BME280_pressure;Samples;Min_cycle;Max_cycle;Signal;HPM_P1;HPM_P2
2022/10/05 00:00:43;;;;;;;22.43;8.90;;;;;;;7.48;100.00;100483.91;4162836;28;25448;-67
2022/10/05 00:03:10;;;;;;;20.63;8.90;;;;;;;7.54;100.00;100491.38;4178936;28;20318;-67
2022/10/05 00:05:37;;;;;;;25.13;8.77;;;;;;;7.55;100.00;100485.09;4173990;28;20238;-69
2022/10/05 00:08:11;;;;;;;29.53;9.20;;;;;;;7.54;100.00;100483.44;4161110;28;20507;-66
2022/10/05 00:10:40;;;;;;;23.83;9.30;;;;;;;7.52;100.00;100478.25;4155862;28;20677;-67
2022/10/05 00:13:19;;;;;;;21.53;8.77;;;;;;;7.66;100.00;100484.25;4163785;28;20614;-69
2022/10/05 00:15:47;;;;;;;24.57;8.23;;;;;;;7.61;100.00;100495.22;4170276;28;20337;-68
2022/10/05 00:18:19;;;;;;;24.37;9.53;;;;;;;7.63;100.00;100493.25;4169879;28;22746;-68
2022/10/05 00:20:46;;;;;;;19.67;9.13;;;;;;;7.66;100.00;100492.19;4147482;28;20247;-70
2022/10/05 00:23:17;;;;;;;21.17;8.40;;;;;;;7.69;100.00;100481.34;4159830;28;21585;-68
2022/10/05 00:25:44;;;;;;;27.33;9.80;;;;;;;7.61;100.00;100474.03;4159123;28;20309;-68
2022/10/05 00:28:25;;;;;;;23.53;9.77;;;;;;;7.65;100.00;100474.59;4174917;28;20239;-67
2022/10/05 00:30:56;;;;;;;30.03;10.23;;;;;;;7.62;100.00;100473.06;4156199;28;20240;-67
2022/10/05 00:33:23;;;;;;;20.97;9.00;;;;;;;7.66;100.00;100474.50;4168440;28;20779;-70
2022/10/05 00:35:49;;;;;;;21.20;9.17;;;;;;;7.67;100.00;100475.31;4158703;28;20315;-68
2022/10/05 00:38:16;;;;;;;31.40;9.40;;;;;;;7.65;100.00;100474.59;4155264;28;20850;-68
2022/10/05 00:41:07;;;;;;;22.03;9.60;;;;;;;7.67;100.00;100472.69;4179377;28;21199;-70
2022/10/05 00:44:00;;;;;;;20.43;8.77;;;;;;;7.69;100.00;100474.22;4173301;28;20257;-68
2022/10/05 00:46:43;;;;;;;24.10;9.30;;;;;;;7.69;100.00;100476.03;4161410;28;20307;-68
2022/10/05 00:49:39;;;;;;;21.03;9.60;;;;;;;7.68;100.00;100479.63;4162831;28;20250;-67
2022/10/05 00:52:36;;;;;;;24.47;8.87;;;;;;;7.63;100.00;100482.66;4165043;28;20238;-67
2022/10/05 00:55:15;;;;;;;25.60;9.67;;;;;;;7.69;100.00;100486.63;4169191;28;20244;-66
2022/10/05 00:58:07;;;;;;;26.90;9.90;;;;;;;7.70;100.00;100488.31;4158967;28;20688;-66
2022/10/05 01:00:42;;;;;;;21.10;9.37;;;;;;;7.73;100.00;100483.63;4168011;28;20392;-67
2022/10/05 01:03:28;;;;;;;21.87;9.40;;;;;;;7.80;100.00;100478.66;4161863;28;22799;-69
2022/10/05 01:06:07;;;;;;;23.43;9.73;;;;;;;7.82;100.00;100468.78;4163825;28;20349;-68
2022/10/05 01:08:46;;;;;;;24.13;9.20;;;;;;;7.87;100.00;100471.88;4166919;28;21716;-67
2022/10/05 01:11:19;;;;;;;23.00;9.27;;;;;;;7.94;100.00;100486.31;4161248;28;20230;-69
2022/10/05 01:14:17;;;;;;;23.43;9.90;;;;;;;7.95;100.00;100484.50;4155809;28;21151;-68
2022/10/05 01:17:03;;;;;;;23.33;10.03;;;;;;;7.96;100.00;100484.38;4165777;28;20253;-65
2022/10/05 01:20:07;;;;;;;22.33;9.30;;;;;;;8.02;100.00;100486.50;4176206;28;20238;-68
2022/10/05 01:23:01;;;;;;;20.87;9.23;;;;;;;8.07;100.00;100482.63;4172391;28;25176;-67
2022/10/05 01:25:37;;;;;;;28.07;9.50;;;;;;;8.03;100.00;100482.06;4160237;28;20243;-68
2022/10/05 01:28:10;;;;;;;28.80;9.07;;;;;;;8.12;100.00;100489.22;4156228;28;21274;-66
2022/10/05 01:30:42;;;;;;;19.93;9.40;;;;;;;8.08;100.00;100482.50;4166405;28;20235;-67
2022/10/05 01:33:24;;;;;;;20.57;8.53;;;;;;;8.10;100.00;100479.72;4173907;28;26031;-68
2022/10/05 01:36:01;;;;;;;21.47;8.70;;;;;;;8.11;100.00;100478.75;4163717;28;22521;-67
2022/10/05 01:38:53;;;;;;;24.17;9.00;;;;;;;8.20;100.00;100470.03;4159284;28;22096;-67
2022/10/05 01:41:32;;;;;;;20.43;8.60;;;;;;;8.34;100.00;100469.72;4175998;28;22075;-68
2022/10/05 01:44:30;;;;;;;23.87;8.57;;;;;;;8.42;100.00;100459.31;4154703;28;20308;-68
2022/10/05 01:47:04;;;;;;;19.13;8.07;;;;;;;8.58;100.00;100468.63;4168025;28;20254;-66
2022/10/05 01:49:46;;;;;;;16.40;8.20;;;;;;;8.45;100.00;100482.09;4167845;28;20309;-68
2022/10/05 01:52:49;;;;;;;22.83;8.50;;;;;;;8.29;100.00;100492.28;4165998;28;20226;-68
2022/10/05 01:55:53;;;;;;;18.27;8.37;;;;;;;8.25;100.00;100481.94;4182255;28;20615;-66
2022/10/05 01:58:35;;;;;;;20.90;8.63;;;;;;;8.27;100.00;100492.41;4174866;28;20411;-66
2022/10/05 02:01:07;;;;;;;19.10;8.17;;;;;;;8.26;100.00;100496.03;4165612;28;20289;-66
2022/10/05 02:03:38;;;;;;;22.10;8.27;;;;;;;8.24;100.00;100497.97;4156868;28;20249;-66
2022/10/05 02:06:12;;;;;;;23.53;8.53;;;;;;;8.29;100.00;100489.63;4159693;28;20247;-66
2022/10/05 02:09:12;;;;;;;21.63;8.70;;;;;;;8.19;100.00;100485.13;4161735;28;21721;-67
2022/10/05 02:11:39;;;;;;;21.23;8.43;;;;;;;8.34;100.00;100476.84;4136867;28;21444;-68
2022/10/05 02:14:10;;;;;;;18.37;8.23;;;;;;;8.31;100.00;100472.63;4154518;28;20239;-66
2022/10/05 02:16:41;;;;;;;21.23;8.30;;;;;;;8.31;100.00;100477.06;4160121;28;20243;-66
2022/10/05 02:19:14;;;;;;;21.43;8.53;;;;;;;8.33;100.00;100467.19;4164013;28;22593;-66
2022/10/05 02:21:43;;;;;;;18.90;7.57;;;;;;;8.43;100.00;100463.66;4159210;28;20248;-67
2022/10/05 02:24:14;;;;;;;23.60;8.83;;;;;;;8.45;100.00;100442.31;4148724;28;20345;-68
2022/10/05 02:26:41;;;;;;;21.77;8.23;;;;;;;8.42;100.00;100424.84;4157716;28;20341;-67
2022/10/05 02:29:10;;;;;;;19.40;8.17;;;;;;;8.43;100.00;100413.28;4170519;28;20303;-67
2022/10/05 02:31:40;;;;;;;23.57;8.37;;;;;;;8.50;100.00;100418.03;4159284;28;21117;-67
2022/10/05 02:34:27;;;;;;;21.13;8.33;;;;;;;8.43;100.00;100434.50;4155733;28;22350;-67
2022/10/05 02:37:24;;;;;;;20.17;8.73;;;;;;;8.40;100.00;100442.69;4177540;28;20238;-68
2022/10/05 02:40:12;;;;;;;29.57;8.93;;;;;;;8.30;100.00;100449.72;4159871;28;20230;-66
2022/10/05 02:42:53;;;;;;;22.73;9.43;;;;;;;8.31;100.00;100438.16;4165189;28;21330;-67
2022/10/05 02:45:44;;;;;;;24.97;10.80;;;;;;;8.47;100.00;100429.75;4158133;28;20232;-68
2022/10/05 02:48:22;;;;;;;21.10;10.00;;;;;;;8.50;100.00;100420.69;4169255;28;20512;-68
2022/10/05 02:50:54;;;;;;;21.43;10.90;;;;;;;8.45;100.00;100432.56;4149119;28;20269;-68
2022/10/05 02:53:43;;;;;;;33.97;12.37;;;;;;;8.35;100.00;100459.94;4168240;28;20248;-67
2022/10/05 02:56:30;;;;;;;28.20;11.50;;;;;;;8.31;100.00;100446.13;4153525;28;20448;-68
2022/10/05 02:59:34;;;;;;;24.03;11.47;;;;;;;8.34;100.00;100435.25;4155451;28;20239;-67
2022/10/05 03:02:11;;;;;;;28.70;10.80;;;;;;;8.45;100.00;100447.59;4168585;28;20235;-68
2022/10/05 03:04:42;;;;;;;20.43;9.97;;;;;;;8.29;100.00;100452.50;4161510;28;20378;-66
2022/10/05 03:07:16;;;;;;;28.60;9.40;;;;;;;8.17;100.00;100460.53;4167138;28;20570;-69
2022/10/05 03:10:13;;;;;;;20.33;9.10;;;;;;;8.19;100.00;100473.66;4167714;28;20623;-67
2022/10/05 03:12:54;;;;;;;27.17;10.20;;;;;;;8.17;100.00;100464.97;4173714;28;20572;-67
2022/10/05 03:15:39;;;;;;;26.30;9.97;;;;;;;8.22;100.00;100462.81;4167082;28;20242;-69
2022/10/05 03:18:36;;;;;;;17.63;9.87;;;;;;;8.20;100.00;100460.28;4162049;28;21237;-67
2022/10/05 03:21:22;;;;;;;24.33;9.87;;;;;;;8.35;100.00;100463.44;4168770;28;20237;-67
2022/10/05 03:24:17;;;;;;;25.00;9.70;;;;;;;8.25;100.00;100473.97;4148126;28;20410;-67
2022/10/05 03:27:05;;;;;;;25.60;10.30;;;;;;;8.20;100.00;100480.66;4172365;28;20239;-66
2022/10/05 03:29:37;;;;;;;20.13;10.47;;;;;;;8.21;100.00;100477.00;4176511;28;20314;-67
2022/10/05 03:32:44;;;;;;;23.40;10.53;;;;;;;8.20;100.00;100476.19;4148590;28;20237;-66
2022/10/05 03:35:17;;;;;;;19.70;10.13;;;;;;;8.29;100.00;100468.41;4150742;28;20411;-68
2022/10/05 03:37:51;;;;;;;24.40;10.63;;;;;;;8.22;100.00;100474.25;4156796;28;20247;-66
2022/10/05 03:40:21;;;;;;;25.40;10.57;;;;;;;8.25;100.00;100468.69;4163726;28;20239;-67
2022/10/05 03:42:52;;;;;;;28.50;10.37;;;;;;;8.34;100.00;100456.47;4160960;28;21808;-68
2022/10/05 03:45:21;;;;;;;25.57;10.53;;;;;;;8.41;100.00;100444.41;4152589;28;20238;-68
2022/10/05 03:47:56;;;;;;;21.30;9.73;;;;;;;8.51;100.00;100447.09;4168730;28;20234;-68
2022/10/05 03:50:39;;;;;;;23.93;9.30;;;;;;;8.46;100.00;100451.97;4119924;28;1239595;-69
2022/10/05 03:53:12;;;;;;;27.07;11.33;;;;;;;8.33;100.00;100453.94;4160837;28;21427;-66
2022/10/05 03:55:42;;;;;;;23.87;10.70;;;;;;;8.33;100.00;100457.41;4170688;28;20325;-69
2022/10/05 03:58:24;;;;;;;26.50;10.87;;;;;;;8.31;100.00;100446.13;4158680;28;22068;-68
2022/10/05 04:00:53;;;;;;;26.73;11.37;;;;;;;8.49;100.00;100456.16;4154131;29;20975;-68
2022/10/05 04:03:25;;;;;;;27.60;12.67;;;;;;;8.55;100.00;100437.91;4160374;28;22030;-67
2022/10/05 04:05:58;;;;;;;32.93;13.43;;;;;;;8.53;100.00;100437.19;4156706;28;20234;-67
2022/10/05 04:08:37;;;;;;;26.40;12.77;;;;;;;8.49;100.00;100434.94;4154056;28;20242;-67
2022/10/05 04:11:08;;;;;;;24.37;12.07;;;;;;;8.56;100.00;100430.78;4169683;28;22967;-65
2022/10/05 04:14:00;;;;;;;24.37;12.07;;;;;;;8.53;100.00;100423.09;4161378;28;20396;-67
2022/10/05 04:16:31;;;;;;;25.17;10.97;;;;;;;8.53;100.00;100436.38;4165613;29;20241;-66
2022/10/05 04:19:03;;;;;;;24.70;11.60;;;;;;;8.73;100.00;100429.31;4149001;28;25571;-67
2022/10/05 04:22:14;;;;;;;20.57;9.73;;;;;;;8.79;100.00;100437.59;4157861;28;20239;-67
2022/10/05 04:24:48;;;;;;;22.67;9.57;;;;;;;8.67;100.00;100441.31;4172395;28;20227;-67
2022/10/05 04:27:43;;;;;;;23.30;9.70;;;;;;;8.75;100.00;100448.59;4168661;28;20241;-66
2022/10/05 04:30:17;;;;;;;28.77;9.30;;;;;;;8.72;100.00;100440.91;4162193;28;22168;-66
2022/10/05 04:32:52;;;;;;;26.80;9.27;;;;;;;8.66;100.00;100442.28;4163795;28;21421;-67
2022/10/05 04:35:49;;;;;;;26.93;8.63;;;;;;;8.45;100.00;100451.13;4171183;28;20526;-67
2022/10/05 04:38:54;;;;;;;21.17;8.50;;;;;;;8.52;100.00;100453.22;4182961;28;20243;-69
2022/10/05 04:41:57;;;;;;;19.50;8.73;;;;;;;8.53;100.00;100449.63;4181430;28;20253;-68
2022/10/05 04:44:36;;;;;;;20.90;7.77;;;;;;;8.56;100.00;100458.16;4166294;28;20296;-68
2022/10/05 04:47:32;;;;;;;24.90;9.00;;;;;;;8.53;100.00;100460.25;4159234;28;20244;-66
2022/10/05 04:50:17;;;;;;;25.60;9.13;;;;;;;8.60;100.00;100448.13;4166206;28;20947;-67
2022/10/05 04:52:54;;;;;;;23.57;8.80;;;;;;;8.52;100.00;100458.53;4161527;28;20238;-69
2022/10/05 04:55:32;;;;;;;21.57;9.03;;;;;;;8.51;100.00;100456.88;4159685;28;20282;-67
2022/10/05 04:58:11;;;;;;;21.87;8.90;;;;;;;8.45;100.00;100451.13;4157488;28;20242;-67
2022/10/05 05:00:57;;;;;;;24.60;8.70;;;;;;;8.43;100.00;100452.22;4175572;28;20347;-69
2022/10/05 05:03:33;;;;;;;20.23;8.23;;;;;;;8.44;100.00;100456.53;4199588;29;20329;-68
2022/10/05 05:06:12;;;;;;;21.93;8.43;;;;;;;8.42;100.00;100469.09;4183002;29;20584;-68
2022/10/05 05:08:57;;;;;;;17.60;8.30;;;;;;;8.40;100.00;100469.22;4150432;28;20233;-67
2022/10/05 05:11:26;;;;;;;22.77;8.67;;;;;;;8.44;100.00;100468.00;4180380;28;20229;-65
2022/10/05 05:14:10;;;;;;;25.67;9.13;;;;;;;8.49;100.00;100472.06;4156357;29;20242;-62
2022/10/05 05:16:39;;;;;;;25.10;9.67;;;;;;;8.47;100.00;100474.84;4164039;28;20238;-67
2022/10/05 05:19:24;;;;;;;21.17;9.33;;;;;;;8.58;100.00;100468.63;4172792;28;20432;-62
2022/10/05 05:22:09;;;;;;;19.33;9.00;;;;;;;8.65;100.00;100467.13;4172428;28;20336;-64
2022/10/05 05:24:48;;;;;;;20.43;9.70;;;;;;;8.69;100.00;100471.22;4180431;28;20238;-62
2022/10/05 05:27:28;;;;;;;20.30;8.43;;;;;;;8.68;100.00;100480.13;4156886;28;20523;-61
2022/10/05 05:30:20;;;;;;;31.03;9.00;;;;;;;8.74;100.00;100468.16;4163815;28;20230;-67
2022/10/05 05:33:07;;;;;;;22.57;8.90;;;;;;;8.77;100.00;100475.84;4177101;28;20231;-63
2022/10/05 05:35:48;;;;;;;26.67;9.33;;;;;;;8.84;100.00;100467.22;4144443;29;21617;-63
2022/10/05 05:38:17;;;;;;;23.40;9.37;;;;;;;8.86;100.00;100462.63;4206602;29;20238;-63
2022/10/05 05:40:49;;;;;;;21.87;9.53;;;;;;;8.99;100.00;100449.13;4157379;28;22156;-65
2022/10/05 05:43:40;;;;;;;22.30;8.90;;;;;;;9.01;100.00;100448.97;4157286;28;20234;-64
2022/10/05 05:46:14;;;;;;;19.63;8.87;;;;;;;8.93;100.00;100462.94;4167270;28;20402;-63
2022/10/05 05:48:42;;;;;;;22.93;9.20;;;;;;;8.85;100.00;100471.56;4147699;28;20231;-62
2022/10/05 05:51:16;;;;;;;21.63;9.20;;;;;;;8.87;100.00;100464.31;4182933;28;20426;-65
2022/10/05 05:53:49;;;;;;;35.73;11.27;;;;;;;8.90;100.00;100465.88;4163933;28;21541;-63
2022/10/05 05:56:24;;;;;;;33.43;10.23;;;;;;;8.98;100.00;100465.19;4154603;28;22682;-64
2022/10/05 05:58:53;;;;;;;30.30;11.50;;;;;;;9.11;100.00;100463.16;4159581;28;20412;-64
2022/10/05 06:01:33;;;;;;;28.67;10.87;;;;;;;9.23;100.00;100467.38;4170405;28;20235;-63
2022/10/05 06:04:11;;;;;;;22.33;10.17;;;;;;;9.25;100.00;100476.03;4153043;28;20226;-62
2022/10/05 06:06:41;;;;;;;24.53;9.17;;;;;;;9.28;100.00;100470.44;4144961;28;20273;-62
2022/10/05 06:09:23;;;;;;;23.80;9.43;;;;;;;9.41;100.00;100458.72;4178948;28;20346;-62
2022/10/05 06:11:55;;;;;;;31.87;9.57;;;;;;;9.48;100.00;100467.81;4175558;28;20853;-63
2022/10/05 06:14:28;;;;;;;19.80;8.10;;;;;;;9.53;100.00;100470.94;4165889;28;20506;-63
2022/10/05 06:17:06;;;;;;;17.63;8.53;;;;;;;9.64;100.00;100472.63;4174032;28;20969;-61
2022/10/05 06:19:33;;;;;;;27.47;8.40;;;;;;;9.73;100.00;100469.97;4144709;28;20628;-63
2022/10/05 06:22:36;;;;;;;21.93;8.13;;;;;;;9.73;100.00;100462.00;4155436;28;20424;-62
2022/10/05 06:25:11;;;;;;;20.10;8.90;;;;;;;9.90;100.00;100459.63;4163956;28;20234;-60
2022/10/05 06:28:03;;;;;;;19.17;7.83;;;;;;;9.92;99.53;100460.31;4155258;28;20305;-61
2022/10/05 06:30:52;;;;;;;17.00;7.83;;;;;;;9.89;99.73;100457.94;4166948;28;20243;-63
2022/10/05 06:33:49;;;;;;;19.07;8.97;;;;;;;9.92;99.71;100476.28;4177774;28;20235;-62
2022/10/05 06:36:44;;;;;;;23.93;8.87;;;;;;;10.03;99.62;100452.22;4184875;28;21158;-62
2022/10/05 06:39:30;;;;;;;21.63;7.57;;;;;;;10.14;97.98;100453.88;4161992;28;20793;-63
2022/10/05 06:42:24;;;;;;;27.27;7.30;;;;;;;10.09;98.51;100466.75;4174597;28;20241;-61
2022/10/05 06:45:08;;;;;;;20.33;8.20;;;;;;;10.24;97.93;100465.34;4162089;28;20494;-62
2022/10/05 06:47:43;;;;;;;23.03;7.50;;;;;;;10.30;97.43;100474.59;4203731;28;20390;-62
2022/10/05 06:50:28;;;;;;;21.87;7.70;;;;;;;10.28;97.53;100481.88;4187234;28;25883;-62
2022/10/05 06:53:12;;;;;;;19.57;7.70;;;;;;;10.24;97.55;100485.78;4159551;28;20301;-62
2022/10/05 06:55:51;;;;;;;21.60;7.13;;;;;;;10.32;97.68;100484.13;4175213;28;21521;-64
2022/10/05 06:58:41;;;;;;;18.27;6.80;;;;;;;10.29;97.64;100483.56;4165015;28;21662;-61
2022/10/05 07:01:14;;;;;;;22.10;7.13;;;;;;;10.36;97.48;100487.34;4168996;28;22344;-63
2022/10/05 07:03:46;;;;;;;25.60;6.97;;;;;;;10.44;97.26;100487.47;4163028;28;22269;-62
2022/10/05 07:06:18;;;;;;;17.00;7.03;;;;;;;10.55;95.02;100479.31;4162986;28;20317;-62
2022/10/05 07:08:53;;;;;;;20.40;7.20;;;;;;;10.67;95.43;100473.81;4160595;28;20423;-62
2022/10/05 07:11:46;;;;;;;23.00;7.53;;;;;;;10.70;95.23;100478.84;4167233;28;20248;-62
2022/10/05 07:14:33;;;;;;;16.60;6.87;;;;;;;10.92;93.38;100477.66;4172194;28;20235;-63
2022/10/05 07:17:22;;;;;;;21.93;6.80;;;;;;;10.83;93.16;100476.72;4158690;28;23510;-64
2022/10/05 07:20:13;;;;;;;19.30;7.50;;;;;;;10.86;93.62;100471.09;4165481;28;21957;-62
2022/10/05 07:22:48;;;;;;;17.53;6.77;;;;;;;11.10;92.40;100467.91;4168919;28;21065;-63
2022/10/05 07:25:18;;;;;;;15.60;7.03;;;;;;;11.22;91.26;100478.38;4177653;28;24638;-65
2022/10/05 07:27:53;;;;;;;12.97;5.70;;;;;;;11.42;90.16;100471.94;4161736;28;20236;-63
2022/10/05 07:30:20;;;;;;;15.33;6.07;;;;;;;11.93;88.16;100485.66;4166765;28;22467;-60
2022/10/05 07:33:00;;;;;;;17.13;6.20;;;;;;;12.52;85.04;100485.97;4159744;28;21101;-63
2022/10/05 07:39:06;;;;;;;13.63;5.50;;;;;;;13.23;79.17;100477.69;4150552;28;22066;-63
2022/10/05 07:41:51;;;;;;;11.17;5.73;;;;;;;12.72;81.24;100474.09;4168382;28;21545;-62
2022/10/05 07:44:29;;;;;;;14.37;5.70;;;;;;;12.62;81.83;100468.84;4154703;28;20769;-65
2022/10/05 07:47:11;;;;;;;16.30;6.43;;;;;;;12.45;82.62;100475.94;4167906;28;22135;-62
2022/10/05 07:49:46;;;;;;;15.57;5.53;;;;;;;12.48;82.49;100465.91;4183250;28;20319;-63
2022/10/05 07:52:21;;;;;;;13.17;5.30;;;;;;;12.41;83.19;100469.22;4162520;28;21306;-63
2022/10/05 07:55:00;;;;;;;15.73;6.10;;;;;;;12.48;83.31;100466.78;4146773;28;20524;-62
2022/10/05 07:57:37;;;;;;;16.87;6.17;;;;;;;12.63;82.83;100472.34;4170567;28;20235;-62
2022/10/05 08:00:14;;;;;;;13.67;6.00;;;;;;;12.67;82.36;100463.03;4152677;28;20254;-60
2022/10/05 08:02:50;;;;;;;18.93;5.80;;;;;;;12.81;81.91;100469.63;4154138;28;21604;-63
2022/10/05 08:05:30;;;;;;;14.93;5.47;;;;;;;13.18;79.30;100463.09;4195375;28;21789;-65
2022/10/05 08:08:10;;;;;;;16.10;5.90;;;;;;;13.65;76.93;100467.94;4214040;28;21720;-63
2022/10/05 08:10:50;;;;;;;14.20;5.70;;;;;;;13.60;76.59;100468.47;4206533;28;20240;-65
2022/10/05 08:13:32;;;;;;;13.43;5.50;;;;;;;13.33;76.46;100458.88;4195611;28;20553;-62
2022/10/05 08:16:04;;;;;;;19.00;5.60;;;;;;;13.21;77.48;100452.94;4180068;28;21263;-64
2022/10/05 08:18:58;;;;;;;12.77;5.07;;;;;;;14.08;75.23;100448.09;4188700;28;20321;-63
2022/10/05 08:21:35;;;;;;;20.23;6.23;;;;;;;15.31;70.25;100463.06;4211236;28;22375;-61
2022/10/05 08:24:21;;;;;;;17.37;5.37;;;;;;;16.24;63.97;100468.31;4248089;28;21729;-65
2022/10/05 08:26:51;;;;;;;11.83;4.47;;;;;;;15.86;64.11;100470.16;4231620;28;20236;-64
2022/10/05 08:29:41;;;;;;;13.07;5.13;;;;;;;15.44;66.26;100455.28;4241507;28;20249;-64
2022/10/05 08:32:15;;;;;;;17.37;5.47;;;;;;;15.13;67.68;100448.06;4241024;28;21948;-63
2022/10/05 08:34:47;;;;;;;13.83;5.17;;;;;;;14.80;68.89;100452.72;4160181;29;20238;-62
2022/10/05 08:37:27;;;;;;;9.27;4.40;;;;;;;14.36;70.13;100451.25;4170660;28;21450;-64
2022/10/05 08:40:23;;;;;;;15.27;4.70;;;;;;;14.15;71.95;100453.63;4157962;28;20238;-62
2022/10/05 08:43:12;;;;;;;18.67;4.87;;;;;;;14.27;71.56;100443.41;4184538;28;20279;-63
2022/10/05 08:46:10;;;;;;;16.53;4.37;;;;;;;14.32;71.79;100457.13;4170995;28;25891;-65
2022/10/05 08:49:15;;;;;;;14.40;4.33;;;;;;;14.50;71.17;100451.59;4158512;28;20248;-64
2022/10/05 08:52:00;;;;;;;18.03;4.30;;;;;;;14.69;70.20;100461.13;4120033;29;20422;-62
2022/10/05 08:55:09;;;;;;;11.17;4.53;;;;;;;14.37;70.49;100446.75;4139549;29;20846;-63
2022/10/05 08:58:11;;;;;;;14.60;4.13;;;;;;;14.38;71.73;100448.44;4151307;29;20236;-63
2022/10/05 09:01:06;;;;;;;12.13;3.87;;;;;;;14.39;70.18;100439.38;4145789;29;22603;-65
2022/10/05 09:03:47;;;;;;;9.27;3.90;;;;;;;14.39;70.87;100438.53;4176206;28;20242;-65
2022/10/05 09:06:25;;;;;;;8.80;3.90;;;;;;;14.52;70.90;100423.63;4181350;28;20591;-62
2022/10/05 09:09:02;;;;;;;13.67;3.70;;;;;;;14.61;70.00;100432.53;4181923;28;21346;-65
2022/10/05 09:11:36;;;;;;;11.83;4.03;;;;;;;14.62;69.79;100428.81;4164238;28;20667;-68
2022/10/05 09:14:16;;;;;;;8.90;3.63;;;;;;;14.79;69.42;100424.25;4181637;28;20237;-62
2022/10/05 09:17:07;;;;;;;11.33;4.23;;;;;;;15.10;67.46;100418.09;4162703;28;20505;-65
2022/10/05 09:19:52;;;;;;;8.07;3.50;;;;;;;15.24;67.11;100413.84;4186751;28;20278;-65
2022/10/05 09:22:27;;;;;;;9.13;3.00;;;;;;;15.19;66.92;100414.34;4200278;28;20229;-63
2022/10/05 09:25:03;;;;;;;12.03;3.30;;;;;;;15.24;67.27;100412.00;4174116;28;20504;-66
2022/10/05 09:27:38;;;;;;;15.00;3.60;;;;;;;15.26;66.78;100409.13;4211264;28;22187;-65
2022/10/05 09:30:46;;;;;;;8.50;3.63;;;;;;;15.35;67.17;100424.16;4189091;28;21879;-62
2022/10/05 09:33:31;;;;;;;11.83;3.93;;;;;;;15.49;66.22;100428.75;4165972;28;20243;-64
2022/10/05 09:36:04;;;;;;;10.83;3.80;;;;;;;15.41;65.48;100412.75;4192014;28;20412;-64
2022/10/05 09:39:04;;;;;;;13.23;3.63;;;;;;;15.56;66.00;100410.94;4187644;28;20315;-66
2022/10/05 09:41:58;;;;;;;10.97;3.00;;;;;;;15.30;65.67;100411.28;4212841;28;20744;-66
2022/10/05 09:45:03;;;;;;;14.97;3.77;;;;;;;15.37;66.26;100414.09;4179476;28;20511;-66
2022/10/05 09:47:44;;;;;;;11.03;3.47;;;;;;;15.52;65.39;100423.06;4198278;28;20237;-65
2022/10/05 09:50:16;;;;;;;13.30;3.40;;;;;;;15.57;64.60;100426.06;4173963;28;20313;-66
2022/10/05 09:53:22;;;;;;;8.47;3.33;;;;;;;15.40;65.33;100413.75;4192870;28;20234;-64
2022/10/05 09:55:51;;;;;;;7.00;3.30;;;;;;;15.59;65.30;100420.47;4184397;28;20282;-66
2022/10/05 09:58:43;;;;;;;12.73;3.70;;;;;;;15.65;65.10;100421.63;4200305;28;20664;-64
2022/10/05 10:01:20;;;;;;;10.93;3.47;;;;;;;15.68;63.88;100423.97;4206495;28;21714;-70
2022/10/05 10:04:17;;;;;;;8.53;3.37;;;;;;;15.65;64.38;100425.16;4162392;28;20299;-68
2022/10/05 10:07:02;;;;;;;14.63;3.60;;;;;;;15.68;65.35;100430.16;4188090;28;23073;-68
2022/10/05 10:09:45;;;;;;;11.13;3.80;;;;;;;15.68;64.07;100442.72;4200738;28;20419;-65
2022/10/05 10:12:23;;;;;;;7.77;3.23;;;;;;;15.59;64.46;100442.81;4181839;28;20238;-65
2022/10/05 10:14:55;;;;;;;8.33;3.90;;;;;;;15.58;65.41;100441.13;4193976;28;20277;-69
2022/10/05 10:18:16;;;;;;;12.00;3.60;;;;;;;15.73;64.18;100451.09;4210231;28;20285;-66
2022/10/05 10:21:24;;;;;;;8.10;3.47;;;;;;;15.82;64.45;100453.56;4224251;28;25249;-62
2022/10/05 10:24:28;;;;;;;8.90;3.37;;;;;;;16.25;64.04;100458.44;4193186;29;23623;-66
2022/10/05 10:27:21;;;;;;;8.77;3.07;;;;;;;16.49;62.48;100448.47;4248583;28;20430;-66
2022/10/05 10:30:24;;;;;;;9.47;3.80;;;;;;;16.64;60.99;100441.25;4322118;28;20702;-65
2022/10/05 10:33:19;;;;;;;9.73;3.30;;;;;;;16.57;61.25;100430.41;4297917;28;20314;-64
2022/10/05 10:35:58;;;;;;;9.63;3.20;;;;;;;16.69;60.21;100422.72;4278061;28;20354;-65
2022/10/05 10:39:14;;;;;;;15.67;3.53;;;;;;;16.83;60.19;100416.56;4228197;29;22348;-63
2022/10/05 10:42:03;;;;;;;9.97;3.47;;;;;;;17.03;59.94;100422.19;4203988;29;20240;-63
2022/10/05 10:44:42;;;;;;;9.27;3.30;;;;;;;17.09;58.43;100413.38;4204225;29;20332;-66
2022/10/05 10:47:24;;;;;;;7.70;3.30;;;;;;;16.82;59.01;100400.63;4235062;28;20239;-68
2022/10/05 10:50:10;;;;;;;11.47;3.23;;;;;;;16.96;58.60;100401.63;4180817;28;20420;-65
2022/10/05 10:52:47;;;;;;;7.40;3.30;;;;;;;16.85;58.70;100387.63;4187405;28;20234;-64
2022/10/05 10:55:34;;;;;;;6.53;3.43;;;;;;;16.73;58.92;100380.19;4191124;28;20351;-70
2022/10/05 10:58:24;;;;;;;9.67;2.97;;;;;;;16.84;58.63;100388.66;4197520;28;20875;-66
2022/10/05 11:00:56;;;;;;;10.97;3.23;;;;;;;16.83;58.96;100384.31;4175835;28;20299;-66
2022/10/05 11:03:43;;;;;;;7.27;2.87;;;;;;;17.00;58.95;100393.00;4205838;28;20679;-66
2022/10/05 11:06:23;;;;;;;11.77;3.20;;;;;;;17.08;57.67;100390.19;4201619;28;20238;-66
2022/10/05 11:08:52;;;;;;;7.43;3.30;;;;;;;16.94;58.53;100372.22;4190379;28;21042;-64
2022/10/05 11:11:25;;;;;;;11.97;3.27;;;;;;;16.91;58.75;100371.78;4198291;28;22970;-65
2022/10/05 11:14:01;;;;;;;9.60;3.27;;;;;;;16.84;59.04;100375.22;4184870;28;20243;-63
2022/10/05 11:16:42;;;;;;;9.97;3.47;;;;;;;17.01;58.66;100383.06;4236740;28;20586;-64
2022/10/05 11:19:44;;;;;;;7.97;3.10;;;;;;;17.07;57.43;100376.94;4265734;28;20260;-67
2022/10/05 11:22:29;;;;;;;6.17;2.80;;;;;;;17.06;57.04;100378.78;4155379;28;20233;-68
2022/10/05 11:25:08;;;;;;;7.37;2.90;;;;;;;16.99;57.41;100374.34;4200229;28;20235;-72
2022/10/05 11:28:09;;;;;;;12.27;2.80;;;;;;;17.07;57.83;100374.25;4205210;28;20272;-65
2022/10/05 11:30:50;;;;;;;16.80;3.20;;;;;;;17.28;58.06;100378.84;4292497;28;20292;-68
2022/10/05 11:33:47;;;;;;;10.63;2.80;;;;;;;17.45;56.88;100374.03;4214101;28;20307;-69
2022/10/05 11:36:29;;;;;;;9.53;3.33;;;;;;;17.42;57.44;100366.34;4230177;28;22455;-66
2022/10/05 11:39:22;;;;;;;8.37;2.43;;;;;;;17.23;56.56;100376.72;4238214;28;21634;-70
2022/10/05 11:42:07;;;;;;;7.63;3.07;;;;;;;16.99;57.64;100368.97;4193573;28;20238;-67
2022/10/05 11:45:12;;;;;;;10.60;2.70;;;;;;;16.90;57.98;100370.09;4234433;28;20558;-68
2022/10/05 11:48:06;;;;;;;10.47;3.43;;;;;;;16.97;58.44;100366.47;4243150;28;21848;-66
2022/10/05 11:50:40;;;;;;;10.30;2.90;;;;;;;16.91;57.97;100371.78;4218744;28;21607;-69
2022/10/05 11:53:12;;;;;;;9.30;2.90;;;;;;;16.91;59.66;100371.78;4247168;28;20260;-66
2022/10/05 11:56:10;;;;;;;10.40;2.93;;;;;;;17.08;58.33;100365.97;4262964;28;20570;-69
2022/10/05 11:58:46;;;;;;;11.33;3.00;;;;;;;17.20;58.21;100360.94;4181128;28;21726;-68
2022/10/05 12:01:35;;;;;;;12.13;3.27;;;;;;;17.04;58.87;100362.03;4193901;28;20316;-72
2022/10/05 12:04:16;;;;;;;9.57;3.67;;;;;;;16.71;59.52;100366.94;4257520;28;20226;-70
2022/10/05 12:07:08;;;;;;;7.73;3.17;;;;;;;16.40;61.40;100362.59;4186474;28;20245;-73
2022/10/05 12:10:13;;;;;;;8.43;3.50;;;;;;;16.46;62.23;100364.56;4184740;28;20243;-68
2022/10/05 12:13:18;;;;;;;8.37;3.77;;;;;;;16.48;62.73;100364.34;4231183;28;21452;-70
2022/10/05 12:15:57;;;;;;;12.37;3.43;;;;;;;16.75;61.60;100368.25;4279325;28;20943;-68
2022/10/05 12:18:30;;;;;;;9.47;3.80;;;;;;;16.77;60.58;100368.88;4218875;28;20240;-70
2022/10/05 12:21:26;;;;;;;10.77;3.70;;;;;;;16.61;61.35;100361.03;4221051;28;21686;-70
2022/10/05 12:24:04;;;;;;;8.83;3.50;;;;;;;16.62;61.11;100351.94;4246240;28;20420;-69
2022/10/05 12:26:43;;;;;;;13.23;3.80;;;;;;;16.62;61.67;100346.56;4200653;28;21046;-69
2022/10/05 12:29:34;;;;;;;15.10;4.20;;;;;;;16.71;60.86;100353.50;4216221;28;20237;-68